Time;durP1;ratioP1;P1;durP2;ratioP2;P2;SDS_P1;SDS_P2;PMS_P1;PMS_P2;Temp;Humidity;BMP_temperature;BMP_pressure;BME280_temperature;BME280_humidity;BME280_pressure;Samples;Min_cycle;Max_cycle;Signal;HPM_P1;HPM_P2
2023/06/21 00:00:15;;;;;;;15.53;10.00;;;;;;;;;;5031474;28;20440;-58
2023/06/21 00:02:44;;;;;;;15.43;10.80;;;;;;;;;;5031809;28;20447;-58
2023/06/21 00:05:16;;;;;;;12.80;10.30;;;;;;;;;;5032134;28;20431;-58
2023/06/21 00:07:42;;;;;;;12.37;10.40;;;;;;;;;;5031306;28;20511;-58
2023/06/21 00:10:08;;;;;;;14.00;10.67;;;;;;;;;;5031838;28;20445;-58
2023/06/21 00:12:35;;;;;;;11.40;10.30;;;;;;;;;;5032187;28;20890;-58
2023/06/21 00:15:01;;;;;;;10.40;9.50;;;;;;;;;;5031747;28;20440;-58
2023/06/21 00:17:27;;;;;;;12.33;11.07;;;;;;;;;;5031783;28;20843;-58
2023/06/21 00:19:56;;;;;;;11.17;9.93;;;;;;;;;;5031508;28;20506;-58
2023/06/21 00:22:22;;;;;;;13.40;9.53;;;;;;;;;;5031557;28;20993;-58
2023/06/21 00:24:49;;;;;;;14.93;10.27;;;;;;;;;;5031788;28;20833;-58
2023/06/21 00:27:15;;;;;;;11.80;10.60;;;;;;;;;;5031620;28;20424;-58
2023/06/21 00:29:41;;;;;;;14.33;10.40;;;;;;;;;;5030431;28;20976;-58
2023/06/21 00:32:10;;;;;;;13.33;10.73;;;;;;;;;;5031559;28;20456;-58
2023/06/21 00:34:36;;;;;;;13.00;10.70;;;;;;;;;;5031655;28;20524;-58
2023/06/21 00:37:05;;;;;;;12.20;11.00;;;;;;;;;;5030774;28;20787;-58
2023/06/21 00:39:31;;;;;;;14.23;12.20;;;;;;;;;;5031382;28;20533;-58
2023/06/21 00:41:57;;;;;;;16.43;12.63;;;;;;;;;;5031804;28;20464;-58
2023/06/21 00:44:24;;;;;;;13.33;12.23;;;;;;;;;;5035151;28;20429;-58
2023/06/21 00:46:50;;;;;;;11.90;10.70;;;;;;;;;;5035530;28;20504;-58
2023/06/21 00:49:16;;;;;;;15.93;11.57;;;;;;;;;;5035157;28;20482;-58
2023/06/21 00:51:42;;;;;;;15.53;11.87;;;;;;;;;;5033685;28;20797;-58
2023/06/21 00:54:16;;;;;;;12.00;10.83;;;;;;;;;;5033919;28;20416;-58
2023/06/21 00:56:42;;;;;;;13.93;11.23;;;;;;;;;;5035652;28;20925;-58
2023/06/21 00:59:09;;;;;;;13.53;10.73;;;;;;;;;;5035447;28;20436;-58
2023/06/21 01:01:37;;;;;;;19.53;11.00;;;;;;;;;;5035422;28;20458;-59
2023/06/21 01:04:04;;;;;;;11.70;10.60;;;;;;;;;;5034854;28;20765;-58
2023/06/21 01:06:53;;;;;;;11.93;10.70;;;;;;;;;;5033321;28;20199;-58
2023/06/21 01:09:57;;;;;;;12.43;11.13;;;;;;;;;;5034878;28;20445;-59
2023/06/21 01:12:25;;;;;;;18.77;11.80;;;;;;;;;;4973833;28;20504;-58
2023/06/21 01:14:56;;;;;;;13.10;11.80;;;;;;;;;;5025019;28;20809;-58
2023/06/21 01:17:23;;;;;;;13.33;11.70;;;;;;;;;;5034672;28;20915;-58
2023/06/21 01:19:51;;;;;;;16.10;12.23;;;;;;;;;;5033476;28;20444;-58
2023/06/21 01:22:23;;;;;;;12.90;11.60;;;;;;;;;;5034163;28;20470;-58
2023/06/21 01:25:03;;;;;;;12.87;11.53;;;;;;;;;;5034784;28;20429;-58
2023/06/21 01:27:41;;;;;;;12.33;11.13;;;;;;;;;;5034725;28;20394;-58
2023/06/21 01:30:08;;;;;;;13.57;11.73;;;;;;;;;;5034642;28;20474;-58
2023/06/21 01:32:37;;;;;;;14.40;12.00;;;;;;;;;;5034643;28;20492;-58
2023/06/21 01:35:04;;;;;;;13.20;11.03;;;;;;;;;;5034837;28;20446;-58
2023/06/21 01:37:30;;;;;;;15.70;10.57;;;;;;;;;;5034432;28;20413;-58
2023/06/21 01:39:56;;;;;;;12.13;10.93;;;;;;;;;;5034354;28;20473;-59
2023/06/21 01:42:24;;;;;;;12.07;10.40;;;;;;;;;;5034453;28;20960;-59
2023/06/21 01:44:50;;;;;;;17.90;11.90;;;;;;;;;;5034337;28;20425;-59
2023/06/21 01:47:16;;;;;;;14.97;11.80;;;;;;;;;;5034376;28;20805;-59
2023/06/21 01:49:42;;;;;;;23.50;11.47;;;;;;;;;;5034169;28;20534;-59
2023/06/21 01:52:08;;;;;;;17.27;11.60;;;;;;;;;;5034263;28;20416;-59
2023/06/21 01:54:35;;;;;;;16.03;11.60;;;;;;;;;;5033328;28;20405;-58
2023/06/21 01:57:05;;;;;;;16.20;11.90;;;;;;;;;;5034097;28;20419;-59
2023/06/21 01:59:33;;;;;;;20.77;11.80;;;;;;;;;;5034077;28;20891;-59
2023/06/21 02:02:00;;;;;;;13.13;11.00;;;;;;;;;;5034035;28;20496;-59
2023/06/21 02:04:29;;;;;;;14.13;12.00;;;;;;;;;;5033951;28;20479;-59
2023/06/21 02:06:56;;;;;;;17.67;11.23;;;;;;;;;;5033975;28;20431;-59
2023/06/21 02:09:23;;;;;;;13.70;12.07;;;;;;;;;;5032647;28;20454;-59
2023/06/21 02:11:49;;;;;;;21.90;11.90;;;;;;;;;;5032446;28;20520;-59
2023/06/21 02:14:15;;;;;;;11.80;10.70;;;;;;;;;;5033827;28;20431;-58
2023/06/21 02:16:42;;;;;;;13.87;12.50;;;;;;;;;;5033802;28;20439;-59
2023/06/21 02:19:09;;;;;;;14.47;11.30;;;;;;;;;;5033573;28;20426;-59
2023/06/21 02:21:37;;;;;;;19.97;12.63;;;;;;;;;;5032058;28;20491;-59
2023/06/21 02:24:04;;;;;;;16.00;13.00;;;;;;;;;;5034036;28;20435;-59
2023/06/21 02:26:30;;;;;;;16.93;11.60;;;;;;;;;;5033441;28;20455;-58
2023/06/21 02:28:56;;;;;;;14.97;11.63;;;;;;;;;;5033775;28;20420;-57
2023/06/21 02:31:22;;;;;;;12.37;11.07;;;;;;;;;;5033647;28;20470;-57
2023/06/21 02:33:48;;;;;;;14.17;12.30;;;;;;;;;;5033744;28;20425;-58
2023/06/21 02:36:15;;;;;;;17.53;11.87;;;;;;;;;;5033568;28;20923;-58
2023/06/21 02:38:41;;;;;;;19.83;12.23;;;;;;;;;;5032013;28;20417;-58
2023/06/21 02:41:07;;;;;;;13.90;12.60;;;;;;;;;;5033277;28;20477;-58
2023/06/21 02:43:33;;;;;;;22.70;13.43;;;;;;;;;;5033176;28;20411;-58
2023/06/21 02:46:00;;;;;;;18.53;12.03;;;;;;;;;;5033200;28;20500;-59
2023/06/21 02:48:26;;;;;;;13.90;12.47;;;;;;;;;;5033038;28;20837;-58
2023/06/21 02:50:52;;;;;;;16.67;12.20;;;;;;;;;;5033158;28;20921;-59
2023/06/21 02:53:18;;;;;;;20.03;11.70;;;;;;;;;;5033331;28;20422;-59
2023/06/21 02:55:44;;;;;;;15.03;12.07;;;;;;;;;;5032876;28;20430;-58
2023/06/21 02:58:13;;;;;;;15.60;13.20;;;;;;;;;;5032868;28;20436;-59
2023/06/21 03:00:41;;;;;;;13.07;11.77;;;;;;;;;;5032830;28;20940;-59
2023/06/21 03:03:09;;;;;;;20.27;12.47;;;;;;;;;;5033124;28;20434;-58
2023/06/21 03:05:38;;;;;;;17.43;12.73;;;;;;;;;;5032991;28;20389;-58
2023/06/21 03:08:04;;;;;;;16.27;13.13;;;;;;;;;;5032900;28;20436;-59
2023/06/21 03:10:32;;;;;;;15.37;13.33;;;;;;;;;;5032856;28;20420;-59
2023/06/21 03:12:58;;;;;;;20.93;14.40;;;;;;;;;;5033084;28;20500;-58
2023/06/21 03:15:24;;;;;;;15.17;13.57;;;;;;;;;;5032694;28;20910;-58
2023/06/21 03:17:51;;;;;;;18.37;13.13;;;;;;;;;;5032634;28;20417;-58
2023/06/21 03:20:19;;;;;;;13.83;12.57;;;;;;;;;;5032599;28;20427;-58
2023/06/21 03:22:46;;;;;;;27.77;13.93;;;;;;;;;;5031311;28;20438;-58
2023/06/21 03:25:12;;;;;;;19.70;13.40;;;;;;;;;;5032687;28;20874;-59
2023/06/21 03:27:39;;;;;;;27.93;12.57;;;;;;;;;;5032621;28;20467;-58
2023/06/21 03:30:10;;;;;;;22.20;13.80;;;;;;;;;;5032524;28;20420;-58
2023/06/21 03:32:36;;;;;;;24.10;13.60;;;;;;;;;;5032782;28;20440;-58
2023/06/21 03:35:05;;;;;;;22.90;13.93;;;;;;;;;;5032431;28;20444;-58
2023/06/21 03:37:30;;;;;;;16.20;12.80;;;;;;;;;;5032502;28;20520;-58
2023/06/21 03:39:59;;;;;;;20.17;13.77;;;;;;;;;;5032486;28;20441;-58
2023/06/21 03:42:27;;;;;;;27.03;13.47;;;;;;;;;;5032257;28;20567;-58
2023/06/21 03:44:53;;;;;;;19.30;13.43;;;;;;;;;;5032323;28;20425;-58
2023/06/21 03:47:20;;;;;;;26.00;14.20;;;;;;;;;;5032497;28;20497;-58
2023/06/21 03:49:48;;;;;;;19.53;14.87;;;;;;;;;;5032753;28;20433;-58
2023/06/21 03:52:14;;;;;;;21.97;15.90;;;;;;;;;;5032371;28;20450;-59
2023/06/21 03:54:40;;;;;;;21.87;14.80;;;;;;;;;;5032431;28;20746;-59
2023/06/21 03:57:06;;;;;;;19.90;15.27;;;;;;;;;;5032254;28;20447;-59
2023/06/21 03:59:34;;;;;;;30.03;18.30;;;;;;;;;;5032371;28;20421;-58
2023/06/21 04:02:00;;;;;;;25.73;17.97;;;;;;;;;;5032144;28;20485;-59
2023/06/21 04:04:26;;;;;;;30.43;18.03;;;;;;;;;;5031036;28;20432;-59
2023/06/21 04:06:52;;;;;;;31.80;24.20;;;;;;;;;;5032380;28;20433;-59
2023/06/21 04:09:20;;;;;;;24.30;18.57;;;;;;;;;;5032344;28;20443;-59
2023/06/21 04:11:47;;;;;;;26.10;18.30;;;;;;;;;;5032410;28;20853;-58
2023/06/21 04:14:15;;;;;;;30.53;19.50;;;;;;;;;;5032418;28;20471;-58
2023/06/21 04:16:41;;;;;;;25.03;18.60;;;;;;;;;;5032310;28;20651;-59
2023/06/21 04:19:12;;;;;;;23.50;20.10;;;;;;;;;;5035512;28;21005;-58
2023/06/21 04:21:39;;;;;;;27.20;16.23;;;;;;;;;;5035987;28;20579;-58
2023/06/21 04:24:05;;;;;;;22.47;18.83;;;;;;;;;;5036204;28;21003;-58
2023/06/21 04:26:31;;;;;;;23.40;19.50;;;;;;;;;;5036213;28;20507;-58
2023/06/21 04:29:00;;;;;;;21.60;19.30;;;;;;;;;;5035899;28;20472;-58
2023/06/21 04:31:29;;;;;;;28.90;19.90;;;;;;;;;;5036139;28;20412;-59
2023/06/21 04:33:56;;;;;;;37.20;19.20;;;;;;;;;;5035813;28;20895;-58
2023/06/21 04:36:24;;;;;;;21.17;17.97;;;;;;;;;;5035934;28;20914;-58
2023/06/21 04:38:52;;;;;;;24.33;18.90;;;;;;;;;;5034577;28;20522;-58
2023/06/21 04:41:22;;;;;;;25.70;20.90;;;;;;;;;;5034547;28;20464;-59
2023/06/21 04:43:50;;;;;;;33.20;24.73;;;;;;;;;;5035986;28;20410;-58
2023/06/21 04:46:17;;;;;;;30.10;25.80;;;;;;;;;;5035804;28;20424;-58
2023/06/21 04:48:44;;;;;;;21.37;18.70;;;;;;;;;;5035779;28;20430;-58
2023/06/21 04:51:15;;;;;;;24.20;19.70;;;;;;;;;;5035807;28;20923;-58
2023/06/21 04:53:41;;;;;;;37.73;23.53;;;;;;;;;;5035557;28;20469;-58
2023/06/21 04:56:07;;;;;;;25.60;19.23;;;;;;;;;;5035785;28;20888;-58
2023/06/21 04:58:37;;;;;;;23.33;19.40;;;;;;;;;;5035603;28;20472;-59
2023/06/21 05:01:06;;;;;;;21.47;18.40;;;;;;;;;;5035166;28;20471;-60
2023/06/21 05:03:32;;;;;;;23.73;18.13;;;;;;;;;;5035421;28;20529;-60
2023/06/21 05:06:01;;;;;;;20.50;18.40;;;;;;;;;;5035346;28;20880;-60
2023/06/21 05:08:27;;;;;;;64.77;40.23;;;;;;;;;;5034098;28;20467;-61
2023/06/21 05:10:53;;;;;;;53.50;38.33;;;;;;;;;;5034317;28;20435;-60
2023/06/21 05:13:21;;;;;;;46.83;32.80;;;;;;;;;;5035453;28;20443;-59
2023/06/21 05:15:47;;;;;;;26.07;19.97;;;;;;;;;;5035287;28;20413;-59
2023/06/21 05:18:16;;;;;;;50.73;30.00;;;;;;;;;;5035330;28;20444;-60
2023/06/21 05:20:42;;;;;;;22.33;19.97;;;;;;;;;;5033936;28;20540;-59
2023/06/21 05:23:10;;;;;;;21.00;18.90;;;;;;;;;;5035295;28;20917;-59
2023/06/21 05:25:36;;;;;;;59.80;35.53;;;;;;;;;;5033982;28;20903;-60
2023/06/21 05:28:05;;;;;;;33.30;23.00;;;;;;;;;;5035132;28;20450;-60
2023/06/21 05:30:30;;;;;;;25.20;18.50;;;;;;;;;;5033502;28;20409;-60
2023/06/21 05:32:59;;;;;;;21.77;19.30;;;;;;;;;;5034492;28;20801;-59
2023/06/21 05:35:25;;;;;;;21.90;18.03;;;;;;;;;;5034436;28;20426;-60
2023/06/21 05:37:53;;;;;;;20.10;18.13;;;;;;;;;;5034731;28;20472;-60
2023/06/21 05:40:22;;;;;;;22.17;17.70;;;;;;;;;;5034498;28;20415;-60
2023/06/21 05:42:48;;;;;;;20.57;16.47;;;;;;;;;;5034591;28;20474;-60
2023/06/21 05:45:15;;;;;;;25.60;18.43;;;;;;;;;;5034460;28;20481;-60
2023/06/21 05:47:41;;;;;;;22.30;17.77;;;;;;;;;;5034364;28;20407;-60
2023/06/21 05:50:07;;;;;;;19.90;17.73;;;;;;;;;;5034314;28;20766;-60
2023/06/21 05:52:33;;;;;;;24.90;17.90;;;;;;;;;;5034317;28;20415;-60
2023/06/21 05:54:59;;;;;;;24.20;19.57;;;;;;;;;;5034324;28;20438;-60
2023/06/21 05:57:26;;;;;;;24.37;19.10;;;;;;;;;;5034183;28;20498;-60
2023/06/21 05:59:56;;;;;;;20.80;18.70;;;;;;;;;;5034071;28;20442;-60
2023/06/21 06:02:22;;;;;;;22.53;19.90;;;;;;;;;;5033929;28;20502;-60
2023/06/21 06:04:48;;;;;;;25.53;20.47;;;;;;;;;;5032996;28;20841;-60
2023/06/21 06:07:14;;;;;;;20.50;18.23;;;;;;;;;;5033994;28;20410;-60
2023/06/21 06:09:40;;;;;;;20.60;18.50;;;;;;;;;;5034093;28;20440;-60
2023/06/21 06:12:06;;;;;;;20.93;17.83;;;;;;;;;;5034117;28;20491;-60
2023/06/21 06:14:32;;;;;;;21.23;17.30;;;;;;;;;;5032563;28;20456;-60
2023/06/21 06:16:58;;;;;;;26.10;18.87;;;;;;;;;;5034066;28;20783;-60
2023/06/21 06:19:26;;;;;;;23.10;18.90;;;;;;;;;;5033593;28;20427;-60
2023/06/21 06:21:54;;;;;;;19.73;17.83;;;;;;;;;;5033846;28;20942;-60
2023/06/21 06:24:20;;;;;;;21.90;15.87;;;;;;;;;;5033575;28;20507;-60
2023/06/21 06:26:46;;;;;;;18.37;16.43;;;;;;;;;;5033928;28;20549;-60
2023/06/21 06:29:15;;;;;;;19.20;17.20;;;;;;;;;;5033561;28;20432;-60
2023/06/21 06:31:41;;;;;;;20.17;16.83;;;;;;;;;;5033987;28;20878;-60
2023/06/21 06:34:07;;;;;;;20.50;17.20;;;;;;;;;;5033608;28;21031;-60
2023/06/21 06:36:33;;;;;;;21.70;15.50;;;;;;;;;;5033516;28;20800;-60
2023/06/21 06:38:59;;;;;;;15.33;13.63;;;;;;;;;;5033521;28;20555;-60
2023/06/21 06:41:25;;;;;;;18.43;16.27;;;;;;;;;;5033017;28;20464;-59
2023/06/21 06:43:51;;;;;;;18.13;16.33;;;;;;;;;;5033164;28;20822;-60
2023/06/21 06:46:16;;;;;;;19.03;17.27;;;;;;;;;;5033419;28;20877;-59
2023/06/21 06:48:42;;;;;;;20.83;18.40;;;;;;;;;;5033426;28;20773;-59
2023/06/21 06:51:08;;;;;;;26.03;19.10;;;;;;;;;;5033517;28;20438;-60
2023/06/21 06:53:34;;;;;;;28.60;19.20;;;;;;;;;;5032925;28;20453;-60
2023/06/21 06:56:00;;;;;;;22.77;20.30;;;;;;;;;;5033350;28;20877;-59
2023/06/21 06:58:30;;;;;;;21.30;19.10;;;;;;;;;;5032908;28;20422;-60
2023/06/21 07:00:58;;;;;;;22.73;20.60;;;;;;;;;;5033538;28;20807;-60
2023/06/21 07:03:24;;;;;;;24.57;21.43;;;;;;;;;;5033021;28;20452;-59
2023/06/21 07:05:50;;;;;;;23.67;20.17;;;;;;;;;;5033246;28;21078;-60
2023/06/21 07:08:16;;;;;;;23.00;20.57;;;;;;;;;;5033064;28;20426;-60
2023/06/21 07:10:44;;;;;;;26.57;18.73;;;;;;;;;;5033123;28;20421;-60
2023/06/21 07:13:11;;;;;;;27.23;22.07;;;;;;;;;;5033253;28;20421;-59
2023/06/21 07:15:37;;;;;;;22.70;20.00;;;;;;;;;;5032824;28;20431;-61
2023/06/21 07:18:03;;;;;;;23.83;21.20;;;;;;;;;;5032733;28;20472;-60
2023/06/21 07:20:29;;;;;;;29.90;22.00;;;;;;;;;;5032967;28;20418;-60
2023/06/21 07:22:56;;;;;;;27.40;23.57;;;;;;;;;;5032790;28;20399;-60
2023/06/21 07:25:24;;;;;;;28.53;24.47;;;;;;;;;;5032914;28;21000;-60
2023/06/21 07:27:52;;;;;;;36.57;28.90;;;;;;;;;;5033012;28;20503;-60
2023/06/21 07:30:18;;;;;;;35.43;29.43;;;;;;;;;;5032951;28;20443;-60
2023/06/21 07:32:46;;;;;;;32.60;28.50;;;;;;;;;;5032373;28;20477;-60
2023/06/21 07:35:13;;;;;;;37.67;31.17;;;;;;;;;;5032797;28;20448;-60
2023/06/21 07:37:39;;;;;;;39.97;29.80;;;;;;;;;;5032758;28;20856;-60
2023/06/21 07:40:05;;;;;;;39.87;29.27;;;;;;;;;;5032583;28;20523;-59
2023/06/21 07:42:33;;;;;;;35.20;28.67;;;;;;;;;;5032680;28;20474;-60
2023/06/21 07:44:59;;;;;;;34.40;26.70;;;;;;;;;;5032441;28;20414;-59
2023/06/21 07:47:26;;;;;;;37.20;26.63;;;;;;;;;;5032691;28;20421;-60
2023/06/21 07:49:52;;;;;;;30.73;23.83;;;;;;;;;;5032324;28;20452;-60
2023/06/21 07:52:18;;;;;;;54.63;33.20;;;;;;;;;;5032348;28;20902;-60
2023/06/21 07:54:47;;;;;;;22.67;18.57;;;;;;;;;;5036243;28;20912;-60
2023/06/21 07:57:16;;;;;;;14.57;13.27;;;;;;;;;;5036429;28;20522;-60
2023/06/21 07:59:42;;;;;;;26.50;18.47;;;;;;;;;;5036476;28;20453;-60
2023/06/21 08:02:09;;;;;;;21.50;15.57;;;;;;;;;;5036423;28;20838;-60
2023/06/21 08:04:35;;;;;;;13.47;11.87;;;;;;;;;;5035985;28;20428;-60
2023/06/21 08:07:01;;;;;;;14.43;12.43;;;;;;;;;;5036265;28;20470;-60
2023/06/21 08:09:27;;;;;;;12.83;10.57;;;;;;;;;;5036369;28;20439;-60
2023/06/21 08:11:56;;;;;;;12.03;10.67;;;;;;;;;;5036227;28;20414;-60
2023/06/21 08:14:24;;;;;;;10.93;9.97;;;;;;;;;;5034734;28;20947;-60
2023/06/21 08:16:50;;;;;;;11.47;10.33;;;;;;;;;;5036119;28;20414;-60
2023/06/21 08:19:16;;;;;;;9.53;8.70;;;;;;;;;;5034885;28;20430;-60
2023/06/21 08:21:42;;;;;;;14.87;9.40;;;;;;;;;;5035645;28;20469;-60
2023/06/21 08:24:08;;;;;;;9.07;8.17;;;;;;;;;;5036032;28;20411;-60
2023/06/21 08:26:34;;;;;;;7.43;6.83;;;;;;;;;;5035833;28;20521;-60
2023/06/21 08:29:03;;;;;;;8.90;7.77;;;;;;;;;;5035860;28;20557;-60
2023/06/21 08:31:29;;;;;;;11.73;7.53;;;;;;;;;;5035739;28;20439;-60
2023/06/21 08:33:55;;;;;;;7.83;7.23;;;;;;;;;;5035915;28;20764;-60
2023/06/21 08:36:20;;;;;;;8.70;8.00;;;;;;;;;;5035820;28;20691;-60
2023/06/21 08:38:49;;;;;;;8.60;8.00;;;;;;;;;;5034320;28;20425;-60
2023/06/21 08:41:15;;;;;;;9.40;8.60;;;;;;;;;;5035563;28;20551;-60
2023/06/21 08:43:41;;;;;;;9.73;9.03;;;;;;;;;;5035567;28;20412;-59
2023/06/21 08:46:10;;;;;;;13.13;9.90;;;;;;;;;;5035414;28;20414;-60
2023/06/21 08:48:37;;;;;;;10.83;9.73;;;;;;;;;;5035474;28;20516;-60
2023/06/21 08:51:06;;;;;;;13.43;9.70;;;;;;;;;;5035467;28;20446;-60
2023/06/21 08:53:37;;;;;;;11.30;10.20;;;;;;;;;;5035600;28;20505;-60
2023/06/21 08:56:04;;;;;;;11.73;10.63;;;;;;;;;;5034146;28;20436;-60
2023/06/21 08:58:33;;;;;;;11.53;10.43;;;;;;;;;;5035435;28;20423;-60
2023/06/21 09:01:03;;;;;;;12.30;11.20;;;;;;;;;;5035072;28;20950;-60
2023/06/21 09:03:37;;;;;;;11.17;9.90;;;;;;;;;;5035222;28;20424;-60
2023/06/21 09:06:08;;;;;;;17.00;10.80;;;;;;;;;;5035413;28;20493;-60
2023/06/21 09:08:34;;;;;;;8.13;7.33;;;;;;;;;;5035060;28;20578;-60
2023/06/21 09:11:03;;;;;;;7.90;7.30;;;;;;;;;;5035079;28;20439;-61
2023/06/21 09:13:34;;;;;;;8.00;7.40;;;;;;;;;;5034550;28;20400;-60
2023/06/21 09:16:04;;;;;;;10.90;6.37;;;;;;;;;;5034946;28;20446;-61
2023/06/21 09:18:35;;;;;;;5.00;4.63;;;;;;;;;;5035242;28;20546;-60
2023/06/21 09:21:02;;;;;;;5.43;5.03;;;;;;;;;;5034599;28;20470;-61
2023/06/21 09:23:28;;;;;;;5.40;4.90;;;;;;;;;;5035002;28;20908;-61
2023/06/21 09:25:55;;;;;;;4.33;4.13;;;;;;;;;;5034913;28;20433;-61
2023/06/21 09:28:21;;;;;;;3.70;3.50;;;;;;;;;;5035009;28;20844;-61
2023/06/21 09:30:47;;;;;;;3.80;3.57;;;;;;;;;;5034958;28;20436;-61
2023/06/21 09:33:13;;;;;;;3.10;3.00;;;;;;;;;;5034918;28;20406;-61
2023/06/21 09:35:39;;;;;;;3.40;3.10;;;;;;;;;;5034838;28;20440;-62
2023/06/21 09:38:24;;;;;;;4.00;3.37;;;;;;;;;;5034738;28;20513;-61
2023/06/21 09:40:50;;;;;;;3.33;3.00;;;;;;;;;;5034886;28;20483;-61
2023/06/21 09:43:17;;;;;;;3.00;2.90;;;;;;;;;;5034730;28;20409;-61
2023/06/21 09:45:43;;;;;;;7.90;3.10;;;;;;;;;;5034577;28;20470;-61
2023/06/21 09:48:16;;;;;;;7.53;3.00;;;;;;;;;;5034465;28;20452;-61
2023/06/21 09:50:43;;;;;;;2.50;2.50;;;;;;;;;;5034498;28;20500;-61
2023/06/21 09:53:11;;;;;;;3.27;3.07;;;;;;;;;;5034396;28;20511;-61
2023/06/21 09:55:39;;;;;;;3.50;3.20;;;;;;;;;;5034192;28;20431;-61
2023/06/21 09:58:07;;;;;;;2.90;2.80;;;;;;;;;;5033030;28;20424;-61
2023/06/21 10:00:37;;;;;;;2.70;2.50;;;;;;;;;;5034216;28;20931;-61
2023/06/21 10:03:05;;;;;;;2.70;2.60;;;;;;;;;;5032810;28;20443;-61
2023/06/21 10:05:34;;;;;;;2.90;2.50;;;;;;;;;;5034295;28;20420;-61
2023/06/21 10:08:00;;;;;;;4.47;2.97;;;;;;;;;;5034089;28;20429;-61
2023/06/21 10:10:26;;;;;;;2.60;2.50;;;;;;;;;;5032848;28;20423;-61
2023/06/21 10:12:55;;;;;;;2.07;1.97;;;;;;;;;;5032888;28;20437;-61
2023/06/21 10:15:21;;;;;;;2.50;2.30;;;;;;;;;;5033281;28;20902;-61
2023/06/21 10:17:47;;;;;;;2.00;1.90;;;;;;;;;;5034121;28;20867;-61
2023/06/21 10:20:18;;;;;;;1.80;1.67;;;;;;;;;;5033871;28;20415;-61
2023/06/21 10:22:46;;;;;;;2.10;1.90;;;;;;;;;;5033805;28;20460;-61
2023/06/21 10:25:15;;;;;;;2.27;2.17;;;;;;;;;;5033803;28;20886;-61
2023/06/21 10:27:44;;;;;;;4.53;2.67;;;;;;;;;;5033789;28;20981;-61
2023/06/21 10:30:10;;;;;;;1.90;1.80;;;;;;;;;;5033659;28;20869;-61
2023/06/21 10:32:39;;;;;;;1.50;1.40;;;;;;;;;;5033641;28;20449;-61
2023/06/21 10:35:13;;;;;;;3.67;2.20;;;;;;;;;;5033514;28;20429;-61
2023/06/21 10:37:39;;;;;;;4.50;2.40;;;;;;;;;;5033708;28;20467;-61
2023/06/21 10:40:08;;;;;;;1.90;1.80;;;;;;;;;;5033466;28;20459;-61
2023/06/21 10:42:35;;;;;;;4.43;2.57;;;;;;;;;;5033468;28;20263;-61
2023/06/21 10:45:04;;;;;;;2.03;1.93;;;;;;;;;;5033444;28;20415;-61
2023/06/21 10:47:30;;;;;;;3.90;2.30;;;;;;;;;;5033118;28;20436;-61
2023/06/21 10:49:59;;;;;;;3.17;2.60;;;;;;;;;;5033513;28;20887;-61
2023/06/21 10:52:26;;;;;;;2.57;2.30;;;;;;;;;;5033238;28;20497;-61
2023/06/21 10:54:54;;;;;;;2.33;2.13;;;;;;;;;;5033244;28;20434;-61
2023/06/21 10:57:20;;;;;;;2.13;2.03;;;;;;;;;;5033215;28;20439;-61
2023/06/21 10:59:46;;;;;;;1.80;1.67;;;;;;;;;;5033183;28;20412;-60
2023/06/21 11:02:12;;;;;;;1.93;1.80;;;;;;;;;;5033128;28;20598;-60
2023/06/21 11:04:57;;;;;;;2.27;2.17;;;;;;;;;;5033063;28;20424;-61
2023/06/21 11:07:24;;;;;;;3.70;1.77;;;;;;;;;;5033149;28;20424;-61
2023/06/21 11:09:53;;;;;;;3.10;1.77;;;;;;;;;;5031682;28;20439;-62
2023/06/21 11:12:19;;;;;;;2.40;2.30;;;;;;;;;;5032948;28;20447;-61
2023/06/21 11:14:47;;;;;;;2.93;1.70;;;;;;;;;;5033049;28;20431;-61
2023/06/21 11:17:15;;;;;;;1.73;1.63;;;;;;;;;;5032899;28;20531;-61
2023/06/21 11:19:43;;;;;;;1.97;1.87;;;;;;;;;;5031585;28;20432;-61
2023/06/21 11:22:19;;;;;;;3.00;1.70;;;;;;;;;;5032747;28;20838;-60
2023/06/21 11:24:57;;;;;;;2.13;1.77;;;;;;;;;;5032827;28;20423;-60
2023/06/21 11:27:25;;;;;;;2.50;1.60;;;;;;;;;;5032976;28;20404;-60
2023/06/21 11:30:09;;;;;;;2.13;2.03;;;;;;;;;;5032735;28;20835;-60
2023/06/21 11:32:37;;;;;;;2.60;2.40;;;;;;;;;;5031551;28;20788;-60
2023/06/21 11:35:08;;;;;;;3.13;2.30;;;;;;;;;;5032764;28;20412;-61
2023/06/21 11:37:40;;;;;;;3.37;1.97;;;;;;;;;;5032605;28;20434;-60
2023/06/21 11:40:14;;;;;;;1.87;1.77;;;;;;;;;;5032531;28;20416;-64
2023/06/21 11:42:44;;;;;;;2.20;2.10;;;;;;;;;;5032487;28;20474;-64
2023/06/21 11:45:16;;;;;;;2.30;1.67;;;;;;;;;;5032412;28;20938;-65
2023/06/21 11:47:59;;;;;;;2.10;2.00;;;;;;;;;;5032346;28;20439;-62
2023/06/21 11:50:30;;;;;;;1.80;1.70;;;;;;;;;;5032388;28;20891;-64
2023/06/21 11:52:56;;;;;;;1.57;1.47;;;;;;;;;;5032028;28;20416;-55
2023/06/21 11:55:22;;;;;;;2.10;2.00;;;;;;;;;;5032220;28;20435;-59
2023/06/21 11:57:48;;;;;;;3.27;2.30;;;;;;;;;;5032293;28;20519;-58
2023/06/21 12:00:14;;;;;;;4.13;2.20;;;;;;;;;;5031673;28;20515;-59
2023/06/21 12:02:40;;;;;;;3.03;1.80;;;;;;;;;;5032084;28;20467;-59
2023/06/21 12:05:07;;;;;;;1.70;1.70;;;;;;;;;;5031983;28;20771;-59
2023/06/21 12:07:33;;;;;;;1.93;1.83;;;;;;;;;;5031716;28;20958;-59
2023/06/21 12:10:01;;;;;;;1.93;1.90;;;;;;;;;;5030829;28;20431;-61
2023/06/21 12:12:27;;;;;;;3.40;1.67;;;;;;;;;;5031924;28;20442;-61
2023/06/21 12:14:57;;;;;;;2.07;1.97;;;;;;;;;;5031909;28;20439;-61
2023/06/21 12:17:25;;;;;;;5.93;2.10;;;;;;;;;;5031809;28;20773;-60
2023/06/21 12:19:57;;;;;;;1.93;1.70;;;;;;;;;;5032033;28;20404;-60
2023/06/21 12:22:23;;;;;;;2.33;2.13;;;;;;;;;;5031730;28;20459;-61
2023/06/21 12:24:52;;;;;;;4.30;1.80;;;;;;;;;;5031945;28;20778;-60
2023/06/21 12:27:20;;;;;;;1.87;1.77;;;;;;;;;;5031804;28;20408;-61
2023/06/21 12:29:49;;;;;;;2.70;2.60;;;;;;;;;;5032285;28;20411;-61
2023/06/21 12:32:15;;;;;;;1.90;1.90;;;;;;;;;;5031972;28;20439;-61
2023/06/21 12:34:44;;;;;;;2.20;2.00;;;;;;;;;;5031704;28;20894;-60
2023/06/21 12:37:16;;;;;;;1.93;1.90;;;;;;;;;;5032344;28;20813;-61
2023/06/21 12:39:48;;;;;;;1.90;1.80;;;;;;;;;;5033924;28;20407;-61
2023/06/21 12:42:14;;;;;;;2.10;2.00;;;;;;;;;;5035598;28;20471;-61
2023/06/21 12:44:42;;;;;;;3.17;1.53;;;;;;;;;;5035540;28;20963;-60
2023/06/21 12:47:08;;;;;;;1.83;1.73;;;;;;;;;;5035481;28;20423;-61
2023/06/21 12:49:37;;;;;;;2.20;2.00;;;;;;;;;;5033925;28;20420;-62
2023/06/21 12:52:05;;;;;;;2.10;2.00;;;;;;;;;;5035140;28;20921;-61
2023/06/21 12:54:31;;;;;;;1.70;1.70;;;;;;;;;;5035116;28;20784;-61
2023/06/21 12:57:01;;;;;;;1.80;1.70;;;;;;;;;;5033785;28;20411;-61
2023/06/21 12:59:27;;;;;;;3.73;1.83;;;;;;;;;;5034817;28;20180;-61
2023/06/21 13:01:57;;;;;;;1.60;1.60;;;;;;;;;;5034854;28;20525;-61
2023/06/21 13:04:23;;;;;;;5.13;2.80;;;;;;;;;;5035287;28;20484;-62
2023/06/21 13:06:49;;;;;;;31.00;20.90;;;;;;;;;;5035176;28;20814;-62
2023/06/21 13:09:18;;;;;;;5.47;5.00;;;;;;;;;;5034880;28;20947;-62
2023/06/21 13:11:45;;;;;;;86.10;64.93;;;;;;;;;;5035048;28;20925;-62
2023/06/21 13:14:11;;;;;;;2.63;2.43;;;;;;;;;;5034779;28;20443;-62
2023/06/21 13:16:40;;;;;;;2.37;2.30;;;;;;;;;;5035089;28;20412;-62
2023/06/21 13:19:07;;;;;;;2.20;2.07;;;;;;;;;;5034659;28;20451;-62
2023/06/21 13:21:33;;;;;;;1.93;1.83;;;;;;;;;;5034699;28;20549;-62
2023/06/21 13:24:00;;;;;;;1.77;1.77;;;;;;;;;;5034517;28;20927;-61
2023/06/21 13:26:26;;;;;;;2.17;2.07;;;;;;;;;;5034791;28;20408;-61
2023/06/21 13:28:52;;;;;;;1.87;1.80;;;;;;;;;;5034531;28;20465;-61
2023/06/21 13:31:18;;;;;;;2.53;2.43;;;;;;;;;;5034811;28;20800;-62
2023/06/21 13:33:44;;;;;;;2.27;2.17;;;;;;;;;;5034637;28;20436;-61
2023/06/21 13:36:14;;;;;;;2.20;2.10;;;;;;;;;;5034659;28;20473;-62
2023/06/21 13:38:42;;;;;;;2.50;2.40;;;;;;;;;;5034522;28;20801;-62
2023/06/21 13:41:08;;;;;;;1.90;1.90;;;;;;;;;;5034207;28;20807;-64
2023/06/21 13:43:34;;;;;;;2.33;1.80;;;;;;;;;;5034433;28;21525;-62
2023/06/21 13:46:00;;;;;;;1.97;1.97;;;;;;;;;;5033369;28;20409;-62
2023/06/21 13:48:26;;;;;;;2.57;2.37;;;;;;;;;;5034484;28;20416;-62
2023/06/21 13:50:54;;;;;;;2.03;1.97;;;;;;;;;;5033272;28;20531;-61
2023/06/21 13:53:21;;;;;;;1.90;1.80;;;;;;;;;;5034353;28;20933;-62
2023/06/21 13:55:48;;;;;;;2.30;2.20;;;;;;;;;;5034293;28;20555;-62
2023/06/21 13:58:14;;;;;;;2.40;2.30;;;;;;;;;;5034309;28;20445;-63
2023/06/21 14:00:40;;;;;;;2.23;1.70;;;;;;;;;;5033981;28;20408;-62
2023/06/21 14:03:06;;;;;;;2.00;1.90;;;;;;;;;;5034188;28;20400;-62
2023/06/21 14:05:32;;;;;;;2.50;2.37;;;;;;;;;;5033882;28;20566;-61
2023/06/21 14:07:58;;;;;;;2.30;2.10;;;;;;;;;;5033878;28;20420;-61
2023/06/21 14:10:24;;;;;;;2.37;2.20;;;;;;;;;;5034017;28;20439;-63
2023/06/21 14:12:53;;;;;;;3.60;2.07;;;;;;;;;;5034176;28;21010;-62
2023/06/21 14:15:19;;;;;;;4.07;3.97;;;;;;;;;;5033593;28;20941;-62
2023/06/21 14:17:45;;;;;;;2.57;2.47;;;;;;;;;;5033543;28;20407;-63
2023/06/21 14:20:11;;;;;;;8.03;7.63;;;;;;;;;;5033528;28;20532;-63
2023/06/21 14:22:37;;;;;;;2.23;2.13;;;;;;;;;;5033435;28;20467;-62
2023/06/21 14:25:04;;;;;;;1.90;1.80;;;;;;;;;;5033415;28;20408;-62
2023/06/21 14:27:30;;;;;;;2.37;2.13;;;;;;;;;;5033426;28;20466;-62
2023/06/21 14:30:05;;;;;;;2.40;2.30;;;;;;;;;;5033299;28;20454;-62